sensor_id;sensor_type;location;lat;lon;timestamp;temperature;humidity
10278;DHT22;5184;51.376;7.148;2022-10-30T00:01:59;16.60;1.00
10278;DHT22;5184;51.376;7.148;2022-10-30T00:04:26;16.60;1.00
10278;DHT22;5184;51.376;7.148;2022-10-30T00:06:53;16.80;99.90
10278;DHT22;5184;51.376;7.148;2022-10-30T00:09:20;16.70;99.90
10278;DHT22;5184;51.376;7.148;2022-10-30T00:11:48;16.80;1.00
10278;DHT22;5184;51.376;7.148;2022-10-30T00:14:16;16.70;1.00
10278;DHT22;5184;51.376;7.148;2022-10-30T00:16:43;16.70;1.00
10278;DHT22;5184;51.376;7.148;2022-10-30T00:19:10;16.60;1.00
10278;DHT22;5184;51.376;7.148;2022-10-30T00:21:37;16.60;1.00
10278;DHT22;5184;51.376;7.148;2022-10-30T00:24:03;16.70;1.00
10278;DHT22;5184;51.376;7.148;2022-10-30T00:26:30;16.70;1.00
10278;DHT22;5184;51.376;7.148;2022-10-30T00:28:57;16.80;1.00
10278;DHT22;5184;51.376;7.148;2022-10-30T00:31:23;16.70;1.00
10278;DHT22;5184;51.376;7.148;2022-10-30T00:33:51;16.70;1.00
10278;DHT22;5184;51.376;7.148;2022-10-30T00:36:17;16.60;1.00
10278;DHT22;5184;51.376;7.148;2022-10-30T00:38:44;16.60;1.00
10278;DHT22;5184;51.376;7.148;2022-10-30T00:41:13;16.60;1.00
10278;DHT22;5184;51.376;7.148;2022-10-30T00:43:39;16.60;1.00
10278;DHT22;5184;51.376;7.148;2022-10-30T00:46:14;16.60;1.00
10278;DHT22;5184;51.376;7.148;2022-10-30T00:48:37;16.50;22.70
10278;DHT22;5184;51.376;7.148;2022-10-30T00:51:04;16.50;16.50
10278;DHT22;5184;51.376;7.148;2022-10-30T00:53:30;16.50;1.00
10278;DHT22;5184;51.376;7.148;2022-10-30T00:55:58;16.60;1.00
10278;DHT22;5184;51.376;7.148;2022-10-30T00:58:28;16.50;5.70
10278;DHT22;5184;51.376;7.148;2022-10-30T01:00:53;16.50;1.00
10278;DHT22;5184;51.376;7.148;2022-10-30T01:03:20;16.50;11.90
10278;DHT22;5184;51.376;7.148;2022-10-30T01:05:48;16.50;1.00
10278;DHT22;5184;51.376;7.148;2022-10-30T01:08:14;16.40;1.00
10278;DHT22;5184;51.376;7.148;2022-10-30T01:10:42;16.30;65.60
10278;DHT22;5184;51.376;7.148;2022-10-30T01:13:09;16.30;99.90
10278;DHT22;5184;51.376;7.148;2022-10-30T01:15:37;16.30;99.90
10278;DHT22;5184;51.376;7.148;2022-10-30T01:18:12;16.20;99.90
10278;DHT22;5184;51.376;7.148;2022-10-30T01:21:02;16.20;99.90
10278;DHT22;5184;51.376;7.148;2022-10-30T01:23:47;16.10;99.90
10278;DHT22;5184;51.376;7.148;2022-10-30T01:26:13;16.10;34.90
10278;DHT22;5184;51.376;7.148;2022-10-30T01:28:48;16.30;1.00
10278;DHT22;5184;51.376;7.148;2022-10-30T01:31:15;16.40;1.00
10278;DHT22;5184;51.376;7.148;2022-10-30T01:33:50;16.40;1.00
10278;DHT22;5184;51.376;7.148;2022-10-30T01:36:19;16.50;1.00
10278;DHT22;5184;51.376;7.148;2022-10-30T01:38:48;16.50;1.00
10278;DHT22;5184;51.376;7.148;2022-10-30T01:41:13;16.50;1.00
10278;DHT22;5184;51.376;7.148;2022-10-30T01:43:41;16.60;1.00
10278;DHT22;5184;51.376;7.148;2022-10-30T01:46:14;16.60;1.00
10278;DHT22;5184;51.376;7.148;2022-10-30T01:48:57;16.60;1.00
10278;DHT22;5184;51.376;7.148;2022-10-30T01:54:32;16.60;1.00
10278;DHT22;5184;51.376;7.148;2022-10-30T01:57:02;16.60;1.00
10278;DHT22;5184;51.376;7.148;2022-10-30T01:59:33;16.50;1.00
10278;DHT22;5184;51.376;7.148;2022-10-30T02:01:57;16.40;1.00
10278;DHT22;5184;51.376;7.148;2022-10-30T02:04:24;16.20;29.60
10278;DHT22;5184;51.376;7.148;2022-10-30T02:06:51;16.20;22.70
10278;DHT22;5184;51.376;7.148;2022-10-30T02:09:18;16.10;99.90
10278;DHT22;5184;51.376;7.148;2022-10-30T02:11:44;16.10;99.90
10278;DHT22;5184;51.376;7.148;2022-10-30T02:14:12;16.00;99.90
10278;DHT22;5184;51.376;7.148;2022-10-30T02:16:41;16.00;99.90
10278;DHT22;5184;51.376;7.148;2022-10-30T02:19:06;16.10;99.90
10278;DHT22;5184;51.376;7.148;2022-10-30T02:21:34;16.10;99.90
10278;DHT22;5184;51.376;7.148;2022-10-30T02:24:00;16.10;99.90
10278;DHT22;5184;51.376;7.148;2022-10-30T02:26:27;16.00;99.90
10278;DHT22;5184;51.376;7.148;2022-10-30T02:28:54;15.90;99.90
10278;DHT22;5184;51.376;7.148;2022-10-30T02:31:20;15.80;99.90
10278;DHT22;5184;51.376;7.148;2022-10-30T02:33:47;15.80;99.90
10278;DHT22;5184;51.376;7.148;2022-10-30T02:36:13;15.60;99.90
10278;DHT22;5184;51.376;7.148;2022-10-30T02:38:41;15.40;1.00
10278;DHT22;5184;51.376;7.148;2022-10-30T02:41:09;15.30;1.00
10278;DHT22;5184;51.376;7.148;2022-10-30T02:43:35;15.30;1.00
10278;DHT22;5184;51.376;7.148;2022-10-30T02:46:02;15.20;1.00
10278;DHT22;5184;51.376;7.148;2022-10-30T02:48:29;15.30;1.00
10278;DHT22;5184;51.376;7.148;2022-10-30T02:50:59;15.20;1.00
10278;DHT22;5184;51.376;7.148;2022-10-30T02:53:26;15.20;1.00
10278;DHT22;5184;51.376;7.148;2022-10-30T02:55:53;15.20;49.80
10278;DHT22;5184;51.376;7.148;2022-10-30T02:58:20;15.20;36.00
10278;DHT22;5184;51.376;7.148;2022-10-30T03:00:46;15.20;83.90
10278;DHT22;5184;51.376;7.148;2022-10-30T03:03:13;15.10;73.20
10278;DHT22;5184;51.376;7.148;2022-10-30T03:05:39;15.10;99.90
10278;DHT22;5184;51.376;7.148;2022-10-30T03:08:06;15.10;99.90
10278;DHT22;5184;51.376;7.148;2022-10-30T03:10:33;15.10;99.90
10278;DHT22;5184;51.376;7.148;2022-10-30T03:13:00;15.10;99.90
10278;DHT22;5184;51.376;7.148;2022-10-30T03:15:27;15.10;99.90
10278;DHT22;5184;51.376;7.148;2022-10-30T03:17:53;15.10;99.90
10278;DHT22;5184;51.376;7.148;2022-10-30T03:20:20;15.00;99.90
10278;DHT22;5184;51.376;7.148;2022-10-30T03:22:46;15.00;99.90
10278;DHT22;5184;51.376;7.148;2022-10-30T03:25:14;14.90;99.90
10278;DHT22;5184;51.376;7.148;2022-10-30T03:27:41;14.90;99.90
10278;DHT22;5184;51.376;7.148;2022-10-30T03:30:09;14.90;99.90
10278;DHT22;5184;51.376;7.148;2022-10-30T03:32:36;14.90;1.00
10278;DHT22;5184;51.376;7.148;2022-10-30T03:35:04;14.90;1.00
10278;DHT22;5184;51.376;7.148;2022-10-30T03:37:31;14.80;1.00
10278;DHT22;5184;51.376;7.148;2022-10-30T03:39:58;14.70;1.00
10278;DHT22;5184;51.376;7.148;2022-10-30T03:42:26;14.60;2.80
10278;DHT22;5184;51.376;7.148;2022-10-30T03:44:53;14.50;37.60
10278;DHT22;5184;51.376;7.148;2022-10-30T03:47:20;14.50;99.90
10278;DHT22;5184;51.376;7.148;2022-10-30T03:49:47;14.50;96.80
10278;DHT22;5184;51.376;7.148;2022-10-30T03:52:14;14.50;99.90
10278;DHT22;5184;51.376;7.148;2022-10-30T03:54:40;14.50;99.90
10278;DHT22;5184;51.376;7.148;2022-10-30T03:57:08;14.30;99.90
10278;DHT22;5184;51.376;7.148;2022-10-30T03:59:35;14.30;99.90
10278;DHT22;5184;51.376;7.148;2022-10-30T04:02:02;14.20;99.90
10278;DHT22;5184;51.376;7.148;2022-10-30T04:04:29;14.20;99.90
10278;DHT22;5184;51.376;7.148;2022-10-30T04:06:55;14.10;99.90
10278;DHT22;5184;51.376;7.148;2022-10-30T04:09:22;14.10;99.90
10278;DHT22;5184;51.376;7.148;2022-10-30T04:11:49;14.10;99.90
10278;DHT22;5184;51.376;7.148;2022-10-30T04:14:16;13.90;99.90
10278;DHT22;5184;51.376;7.148;2022-10-30T04:16:43;13.90;99.90
10278;DHT22;5184;51.376;7.148;2022-10-30T04:19:09;13.80;1.00
10278;DHT22;5184;51.376;7.148;2022-10-30T04:21:36;13.70;1.00
10278;DHT22;5184;51.376;7.148;2022-10-30T04:24:03;13.60;1.00
10278;DHT22;5184;51.376;7.148;2022-10-30T04:26:30;13.60;1.00
10278;DHT22;5184;51.376;7.148;2022-10-30T04:28:57;13.60;40.60
10278;DHT22;5184;51.376;7.148;2022-10-30T04:31:24;13.50;99.90
10278;DHT22;5184;51.376;7.148;2022-10-30T04:33:51;13.50;99.90
10278;DHT22;5184;51.376;7.148;2022-10-30T04:36:17;13.40;99.90
10278;DHT22;5184;51.376;7.148;2022-10-30T04:38:44;13.30;99.90
10278;DHT22;5184;51.376;7.148;2022-10-30T04:41:11;13.20;1.00
10278;DHT22;5184;51.376;7.148;2022-10-30T04:43:39;13.20;1.00
10278;DHT22;5184;51.376;7.148;2022-10-30T04:46:06;13.10;1.00
10278;DHT22;5184;51.376;7.148;2022-10-30T04:48:33;13.10;1.00
10278;DHT22;5184;51.376;7.148;2022-10-30T04:51:01;13.00;7.10
10278;DHT22;5184;51.376;7.148;2022-10-30T04:53:28;13.00;99.90
10278;DHT22;5184;51.376;7.148;2022-10-30T04:55:55;13.00;99.90
10278;DHT22;5184;51.376;7.148;2022-10-30T04:58:21;12.90;99.90
10278;DHT22;5184;51.376;7.148;2022-10-30T05:00:48;12.90;66.70
10278;DHT22;5184;51.376;7.148;2022-10-30T05:03:18;12.80;99.90
10278;DHT22;5184;51.376;7.148;2022-10-30T05:05:43;12.70;99.90
10278;DHT22;5184;51.376;7.148;2022-10-30T05:08:11;12.70;99.90
10278;DHT22;5184;51.376;7.148;2022-10-30T05:10:38;12.70;99.90
10278;DHT22;5184;51.376;7.148;2022-10-30T05:13:05;12.70;99.90
10278;DHT22;5184;51.376;7.148;2022-10-30T05:15:31;12.60;1.00
10278;DHT22;5184;51.376;7.148;2022-10-30T05:17:58;12.70;1.00
10278;DHT22;5184;51.376;7.148;2022-10-30T05:20:24;12.60;1.00
10278;DHT22;5184;51.376;7.148;2022-10-30T05:22:55;12.50;1.00
10278;DHT22;5184;51.376;7.148;2022-10-30T05:25:21;12.50;20.30
10278;DHT22;5184;51.376;7.148;2022-10-30T05:27:48;12.50;29.80
10278;DHT22;5184;51.376;7.148;2022-10-30T05:30:14;12.50;57.80
10278;DHT22;5184;51.376;7.148;2022-10-30T05:32:41;12.40;77.10
10278;DHT22;5184;51.376;7.148;2022-10-30T05:35:08;12.40;99.90
10278;DHT22;5184;51.376;7.148;2022-10-30T05:37:34;12.40;99.90
10278;DHT22;5184;51.376;7.148;2022-10-30T05:40:02;12.30;99.90
10278;DHT22;5184;51.376;7.148;2022-10-30T05:42:29;12.30;99.90
10278;DHT22;5184;51.376;7.148;2022-10-30T05:44:57;12.30;99.90
10278;DHT22;5184;51.376;7.148;2022-10-30T05:47:24;12.30;1.00
10278;DHT22;5184;51.376;7.148;2022-10-30T05:49:50;12.30;1.00
10278;DHT22;5184;51.376;7.148;2022-10-30T05:52:17;12.30;99.90
10278;DHT22;5184;51.376;7.148;2022-10-30T05:54:44;12.20;1.00
10278;DHT22;5184;51.376;7.148;2022-10-30T05:57:10;12.20;1.00
10278;DHT22;5184;51.376;7.148;2022-10-30T05:59:37;12.10;1.00
10278;DHT22;5184;51.376;7.148;2022-10-30T06:02:04;12.10;1.00
10278;DHT22;5184;51.376;7.148;2022-10-30T06:04:32;12.00;30.40
10278;DHT22;5184;51.376;7.148;2022-10-30T06:06:59;14.00;99.90
10278;DHT22;5184;51.376;7.148;2022-10-30T06:09:26;12.00;99.90
10278;DHT22;5184;51.376;7.148;2022-10-30T06:11:52;12.00;1.00
10278;DHT22;5184;51.376;7.148;2022-10-30T06:14:19;12.00;1.00
10278;DHT22;5184;51.376;7.148;2022-10-30T06:16:45;12.00;95.80
10278;DHT22;5184;51.376;7.148;2022-10-30T06:19:12;12.00;61.40
10278;DHT22;5184;51.376;7.148;2022-10-30T06:21:39;12.00;99.90
10278;DHT22;5184;51.376;7.148;2022-10-30T06:24:07;12.00;99.90
10278;DHT22;5184;51.376;7.148;2022-10-30T06:26:33;12.00;99.90
10278;DHT22;5184;51.376;7.148;2022-10-30T06:29:00;12.00;1.00
10278;DHT22;5184;51.376;7.148;2022-10-30T06:31:26;11.90;1.00
10278;DHT22;5184;51.376;7.148;2022-10-30T06:33:53;11.90;1.00
10278;DHT22;5184;51.376;7.148;2022-10-30T06:36:20;11.90;1.00
10278;DHT22;5184;51.376;7.148;2022-10-30T06:38:47;11.90;99.90
10278;DHT22;5184;51.376;7.148;2022-10-30T06:41:13;11.90;1.00
10278;DHT22;5184;51.376;7.148;2022-10-30T06:43:40;11.90;1.00
10278;DHT22;5184;51.376;7.148;2022-10-30T06:46:07;11.90;1.00
10278;DHT22;5184;51.376;7.148;2022-10-30T06:48:34;12.00;20.50
10278;DHT22;5184;51.376;7.148;2022-10-30T06:51:01;12.00;15.50
10278;DHT22;5184;51.376;7.148;2022-10-30T06:53:28;12.00;1.00
10278;DHT22;5184;51.376;7.148;2022-10-30T06:55:55;11.90;99.90
10278;DHT22;5184;51.376;7.148;2022-10-30T06:58:22;12.00;99.90
10278;DHT22;5184;51.376;7.148;2022-10-30T07:00:49;12.00;99.90
10278;DHT22;5184;51.376;7.148;2022-10-30T07:03:16;11.90;99.90
10278;DHT22;5184;51.376;7.148;2022-10-30T07:05:42;12.00;1.00
10278;DHT22;5184;51.376;7.148;2022-10-30T07:08:09;12.00;59.30
10278;DHT22;5184;51.376;7.148;2022-10-30T07:10:35;12.10;25.80
10278;DHT22;5184;51.376;7.148;2022-10-30T07:13:02;9.10;1.00
10278;DHT22;5184;51.376;7.148;2022-10-30T07:15:29;9.80;1.00
10278;DHT22;5184;51.376;7.148;2022-10-30T07:17:57;12.10;26.50
10278;DHT22;5184;51.376;7.148;2022-10-30T07:20:25;12.10;25.20
10278;DHT22;5184;51.376;7.148;2022-10-30T07:22:51;12.10;1.00
10278;DHT22;5184;51.376;7.148;2022-10-30T07:25:18;12.10;1.00
10278;DHT22;5184;51.376;7.148;2022-10-30T07:27:45;12.10;1.00
10278;DHT22;5184;51.376;7.148;2022-10-30T07:30:13;12.10;99.90
10278;DHT22;5184;51.376;7.148;2022-10-30T07:32:40;12.00;99.90
10278;DHT22;5184;51.376;7.148;2022-10-30T07:35:07;12.00;99.90
10278;DHT22;5184;51.376;7.148;2022-10-30T07:37:34;12.00;99.90
10278;DHT22;5184;51.376;7.148;2022-10-30T07:40:00;12.00;99.90
10278;DHT22;5184;51.376;7.148;2022-10-30T07:42:28;12.10;1.00
10278;DHT22;5184;51.376;7.148;2022-10-30T07:44:55;14.80;1.00
10278;DHT22;5184;51.376;7.148;2022-10-30T07:47:22;12.20;1.00
10278;DHT22;5184;51.376;7.148;2022-10-30T07:49:49;12.20;1.00
10278;DHT22;5184;51.376;7.148;2022-10-30T07:52:16;12.10;1.00
10278;DHT22;5184;51.376;7.148;2022-10-30T07:54:42;12.20;1.00
10278;DHT22;5184;51.376;7.148;2022-10-30T07:57:09;12.10;99.90
10278;DHT22;5184;51.376;7.148;2022-10-30T07:59:35;12.20;99.90
10278;DHT22;5184;51.376;7.148;2022-10-30T08:02:03;12.30;80.70
10278;DHT22;5184;51.376;7.148;2022-10-30T08:04:30;12.30;1.00
10278;DHT22;5184;51.376;7.148;2022-10-30T08:06:57;12.30;1.00
10278;DHT22;5184;51.376;7.148;2022-10-30T08:09:24;12.30;1.00
10278;DHT22;5184;51.376;7.148;2022-10-30T08:11:50;12.30;1.00
10278;DHT22;5184;51.376;7.148;2022-10-30T08:14:17;12.40;1.00
10278;DHT22;5184;51.376;7.148;2022-10-30T08:16:44;12.40;99.90
10278;DHT22;5184;51.376;7.148;2022-10-30T08:19:10;12.50;99.90
10278;DHT22;5184;51.376;7.148;2022-10-30T08:21:38;12.60;99.90
10278;DHT22;5184;51.376;7.148;2022-10-30T08:24:05;12.70;99.90
10278;DHT22;5184;51.376;7.148;2022-10-30T08:26:32;12.70;99.90
10278;DHT22;5184;51.376;7.148;2022-10-30T08:28:58;12.80;99.90
10278;DHT22;5184;51.376;7.148;2022-10-30T08:31:26;12.90;1.00
10278;DHT22;5184;51.376;7.148;2022-10-30T08:33:53;12.90;1.00
10278;DHT22;5184;51.376;7.148;2022-10-30T08:36:21;15.10;1.00
10278;DHT22;5184;51.376;7.148;2022-10-30T08:38:47;12.90;1.00
10278;DHT22;5184;51.376;7.148;2022-10-30T08:41:15;13.20;1.00
10278;DHT22;5184;51.376;7.148;2022-10-30T08:43:42;13.10;1.00
10278;DHT22;5184;51.376;7.148;2022-10-30T08:46:09;13.30;37.10
10278;DHT22;5184;51.376;7.148;2022-10-30T08:48:35;13.30;1.00
10278;DHT22;5184;51.376;7.148;2022-10-30T08:51:03;13.50;99.90
10278;DHT22;5184;51.376;7.148;2022-10-30T08:53:30;13.50;99.90
10278;DHT22;5184;51.376;7.148;2022-10-30T08:55:57;13.50;99.90
10278;DHT22;5184;51.376;7.148;2022-10-30T08:58:23;13.70;1.00
10278;DHT22;5184;51.376;7.148;2022-10-30T09:00:50;13.80;99.90
10278;DHT22;5184;51.376;7.148;2022-10-30T09:03:17;14.40;1.00
10278;DHT22;5184;51.376;7.148;2022-10-30T09:05:44;14.80;99.90
10278;DHT22;5184;51.376;7.148;2022-10-30T09:08:12;15.00;99.90
10278;DHT22;5184;51.376;7.148;2022-10-30T09:10:39;15.30;99.90
10278;DHT22;5184;51.376;7.148;2022-10-30T09:13:06;15.30;99.90
10278;DHT22;5184;51.376;7.148;2022-10-30T09:15:32;15.60;1.00
10278;DHT22;5184;51.376;7.148;2022-10-30T09:18:00;15.90;99.90
10278;DHT22;5184;51.376;7.148;2022-10-30T09:20:26;16.10;99.90
10278;DHT22;5184;51.376;7.148;2022-10-30T09:22:52;16.20;99.90
10278;DHT22;5184;51.376;7.148;2022-10-30T09:25:20;16.40;1.00
10278;DHT22;5184;51.376;7.148;2022-10-30T09:27:47;16.40;4.50
10278;DHT22;5184;51.376;7.148;2022-10-30T09:30:14;17.80;1.00
10278;DHT22;5184;51.376;7.148;2022-10-30T09:32:40;16.40;1.00
10278;DHT22;5184;51.376;7.148;2022-10-30T09:35:07;16.50;1.00
10278;DHT22;5184;51.376;7.148;2022-10-30T09:37:35;16.60;1.00
10278;DHT22;5184;51.376;7.148;2022-10-30T09:40:01;16.70;99.90
10278;DHT22;5184;51.376;7.148;2022-10-30T09:42:36;16.80;99.90
10278;DHT22;5184;51.376;7.148;2022-10-30T09:45:18;16.90;99.90
10278;DHT22;5184;51.376;7.148;2022-10-30T09:48:01;16.90;99.90
10278;DHT22;5184;51.376;7.148;2022-10-30T09:50:28;17.10;1.00
10278;DHT22;5184;51.376;7.148;2022-10-30T09:52:58;17.10;1.00
10278;DHT22;5184;51.376;7.148;2022-10-30T09:56:34;17.60;99.90
10278;DHT22;5184;51.376;7.148;2022-10-30T09:58:17;17.80;99.90
10278;DHT22;5184;51.376;7.148;2022-10-30T10:00:45;17.70;99.90
10278;DHT22;5184;51.376;7.148;2022-10-30T10:03:32;18.00;99.90
10278;DHT22;5184;51.376;7.148;2022-10-30T10:05:55;18.00;99.90
10278;DHT22;5184;51.376;7.148;2022-10-30T10:08:26;18.30;1.00
10278;DHT22;5184;51.376;7.148;2022-10-30T10:10:52;18.30;1.00
10278;DHT22;5184;51.376;7.148;2022-10-30T10:13:25;18.50;55.90
10278;DHT22;5184;51.376;7.148;2022-10-30T10:15:50;18.60;1.00
10278;DHT22;5184;51.376;7.148;2022-10-30T10:18:17;18.80;1.00
10278;DHT22;5184;51.376;7.148;2022-10-30T10:20:44;18.90;1.00
10278;DHT22;5184;51.376;7.148;2022-10-30T10:23:18;19.00;1.00
10278;DHT22;5184;51.376;7.148;2022-10-30T10:25:45;18.90;1.00
10278;DHT22;5184;51.376;7.148;2022-10-30T10:28:15;19.10;99.90
10278;DHT22;5184;51.376;7.148;2022-10-30T10:30:43;19.20;99.90
10278;DHT22;5184;51.376;7.148;2022-10-30T10:33:38;19.20;99.90
10278;DHT22;5184;51.376;7.148;2022-10-30T10:36:08;19.30;99.90
10278;DHT22;5184;51.376;7.148;2022-10-30T10:38:38;19.40;99.90
10278;DHT22;5184;51.376;7.148;2022-10-30T10:44:15;19.60;99.90
10278;DHT22;5184;51.376;7.148;2022-10-30T10:46:42;19.50;99.90
10278;DHT22;5184;51.376;7.148;2022-10-30T10:49:41;19.60;99.90
10278;DHT22;5184;51.376;7.148;2022-10-30T10:51:57;19.70;99.90
10278;DHT22;5184;51.376;7.148;2022-10-30T10:54:23;19.80;1.00
10278;DHT22;5184;51.376;7.148;2022-10-30T10:56:49;19.80;43.00
10278;DHT22;5184;51.376;7.148;2022-10-30T10:59:19;19.80;99.90
10278;DHT22;5184;51.376;7.148;2022-10-30T11:01:55;20.00;97.90
10278;DHT22;5184;51.376;7.148;2022-10-30T11:04:29;19.90;94.40
10278;DHT22;5184;51.376;7.148;2022-10-30T11:06:53;20.00;99.90
10278;DHT22;5184;51.376;7.148;2022-10-30T11:09:21;20.10;99.90
10278;DHT22;5184;51.376;7.148;2022-10-30T11:11:48;20.00;99.90
10278;DHT22;5184;51.376;7.148;2022-10-30T11:14:17;20.10;99.90
10278;DHT22;5184;51.376;7.148;2022-10-30T11:16:53;20.20;1.00
10278;DHT22;5184;51.376;7.148;2022-10-30T11:19:17;20.20;1.00
10278;DHT22;5184;51.376;7.148;2022-10-30T11:21:46;20.40;1.00
10278;DHT22;5184;51.376;7.148;2022-10-30T11:24:29;20.50;1.00
10278;DHT22;5184;51.376;7.148;2022-10-30T11:26:56;20.60;99.90
10278;DHT22;5184;51.376;7.148;2022-10-30T11:29:25;20.80;99.90
10278;DHT22;5184;51.376;7.148;2022-10-30T11:31:58;20.90;99.90
10278;DHT22;5184;51.376;7.148;2022-10-30T11:34:27;21.10;99.90
10278;DHT22;5184;51.376;7.148;2022-10-30T11:36:51;18.80;99.90
10278;DHT22;5184;51.376;7.148;2022-10-30T11:39:33;21.10;99.90
10278;DHT22;5184;51.376;7.148;2022-10-30T11:42:16;21.20;99.90
10278;DHT22;5184;51.376;7.148;2022-10-30T11:44:50;21.20;99.90
10278;DHT22;5184;51.376;7.148;2022-10-30T11:47:18;21.20;99.90
10278;DHT22;5184;51.376;7.148;2022-10-30T11:49:47;21.30;99.90
10278;DHT22;5184;51.376;7.148;2022-10-30T11:52:14;21.30;99.90
10278;DHT22;5184;51.376;7.148;2022-10-30T11:54:42;21.30;99.90
10278;DHT22;5184;51.376;7.148;2022-10-30T11:57:34;21.30;99.90
10278;DHT22;5184;51.376;7.148;2022-10-30T12:00:02;21.30;99.90
10278;DHT22;5184;51.376;7.148;2022-10-30T12:02:28;21.40;99.90
10278;DHT22;5184;51.376;7.148;2022-10-30T12:04:59;21.40;99.90
10278;DHT22;5184;51.376;7.148;2022-10-30T12:07:31;21.40;99.90
10278;DHT22;5184;51.376;7.148;2022-10-30T12:09:58;21.50;99.90
10278;DHT22;5184;51.376;7.148;2022-10-30T12:12:28;21.50;99.90
10278;DHT22;5184;51.376;7.148;2022-10-30T12:14:54;21.50;99.90
10278;DHT22;5184;51.376;7.148;2022-10-30T12:17:21;21.60;99.90
10278;DHT22;5184;51.376;7.148;2022-10-30T12:19:49;21.70;99.90
10278;DHT22;5184;51.376;7.148;2022-10-30T12:22:24;21.70;99.90
10278;DHT22;5184;51.376;7.148;2022-10-30T12:24:49;21.80;99.90
10278;DHT22;5184;51.376;7.148;2022-10-30T12:27:16;21.70;99.90
10278;DHT22;5184;51.376;7.148;2022-10-30T12:32:17;21.80;78.60
10278;DHT22;5184;51.376;7.148;2022-10-30T12:34:52;21.80;99.90
10278;DHT22;5184;51.376;7.148;2022-10-30T12:37:20;21.80;99.90
10278;DHT22;5184;51.376;7.148;2022-10-30T12:39:49;21.80;99.90
10278;DHT22;5184;51.376;7.148;2022-10-30T12:42:15;21.80;99.90
10278;DHT22;5184;51.376;7.148;2022-10-30T12:44:54;21.80;99.90
10278;DHT22;5184;51.376;7.148;2022-10-30T12:47:26;21.70;99.90
10278;DHT22;5184;51.376;7.148;2022-10-30T12:49:50;21.70;99.90
10278;DHT22;5184;51.376;7.148;2022-10-30T12:52:18;21.70;99.90
10278;DHT22;5184;51.376;7.148;2022-10-30T12:57:34;21.70;99.90
10278;DHT22;5184;51.376;7.148;2022-10-30T13:00:01;21.70;99.90
10278;DHT22;5184;51.376;7.148;2022-10-30T13:02:38;21.60;99.90
10278;DHT22;5184;51.376;7.148;2022-10-30T13:05:03;21.60;99.90
10278;DHT22;5184;51.376;7.148;2022-10-30T13:07:44;21.60;99.90
10278;DHT22;5184;51.376;7.148;2022-10-30T13:12:50;21.60;99.90
10278;DHT22;5184;51.376;7.148;2022-10-30T13:15:22;23.60;99.90
10278;DHT22;5184;51.376;7.148;2022-10-30T13:17:46;21.60;99.90
10278;DHT22;5184;51.376;7.148;2022-10-30T13:20:13;21.60;99.90
10278;DHT22;5184;51.376;7.148;2022-10-30T13:22:43;21.60;99.90
10278;DHT22;5184;51.376;7.148;2022-10-30T13:25:19;21.60;99.90
10278;DHT22;5184;51.376;7.148;2022-10-30T13:27:50;21.70;99.90
10278;DHT22;5184;51.376;7.148;2022-10-30T13:30:14;21.70;99.90
10278;DHT22;5184;51.376;7.148;2022-10-30T13:32:53;21.70;99.90
10278;DHT22;5184;51.376;7.148;2022-10-30T13:38:32;21.60;99.90
10278;DHT22;5184;51.376;7.148;2022-10-30T13:40:57;21.60;99.90
10278;DHT22;5184;51.376;7.148;2022-10-30T13:43:28;24.20;99.90
10278;DHT22;5184;51.376;7.148;2022-10-30T13:46:03;21.60;99.90
10278;DHT22;5184;51.376;7.148;2022-10-30T13:48:34;21.60;99.90
10278;DHT22;5184;51.376;7.148;2022-10-30T13:51:08;21.60;99.90
10278;DHT22;5184;51.376;7.148;2022-10-30T13:53:31;21.60;99.90
10278;DHT22;5184;51.376;7.148;2022-10-30T13:55:57;21.60;99.90
10278;DHT22;5184;51.376;7.148;2022-10-30T13:58:36;21.60;99.90
10278;DHT22;5184;51.376;7.148;2022-10-30T14:01:05;21.60;1.00
10278;DHT22;5184;51.376;7.148;2022-10-30T14:03:41;21.60;99.90
10278;DHT22;5184;51.376;7.148;2022-10-30T14:06:10;21.60;99.90
10278;DHT22;5184;51.376;7.148;2022-10-30T14:08:40;21.50;99.90
10278;DHT22;5184;51.376;7.148;2022-10-30T14:11:05;21.50;99.90
10278;DHT22;5184;51.376;7.148;2022-10-30T14:13:45;21.50;99.90
10278;DHT22;5184;51.376;7.148;2022-10-30T14:19:04;21.50;99.90
10278;DHT22;5184;51.376;7.148;2022-10-30T14:21:37;21.40;99.90
10278;DHT22;5184;51.376;7.148;2022-10-30T14:24:13;21.40;99.90
10278;DHT22;5184;51.376;7.148;2022-10-30T14:26:54;21.40;1.00
10278;DHT22;5184;51.376;7.148;2022-10-30T14:29:35;21.40;1.00
10278;DHT22;5184;51.376;7.148;2022-10-30T14:31:56;21.30;99.90
10278;DHT22;5184;51.376;7.148;2022-10-30T14:37:03;21.30;99.90
10278;DHT22;5184;51.376;7.148;2022-10-30T14:39:30;21.20;99.90
10278;DHT22;5184;51.376;7.148;2022-10-30T14:42:04;22.70;99.90
10278;DHT22;5184;51.376;7.148;2022-10-30T14:44:51;21.20;1.00
10278;DHT22;5184;51.376;7.148;2022-10-30T14:53:13;21.10;99.90
10278;DHT22;5184;51.376;7.148;2022-10-30T14:58:15;21.20;99.90
10278;DHT22;5184;51.376;7.148;2022-10-30T15:00:41;21.20;99.90
10278;DHT22;5184;51.376;7.148;2022-10-30T15:03:16;21.10;99.90
10278;DHT22;5184;51.376;7.148;2022-10-30T15:08:33;21.10;99.90
10278;DHT22;5184;51.376;7.148;2022-10-30T15:11:10;20.90;99.90
10278;DHT22;5184;51.376;7.148;2022-10-30T15:13:29;20.90;99.90
10278;DHT22;5184;51.376;7.148;2022-10-30T15:15:58;20.70;99.90
10278;DHT22;5184;51.376;7.148;2022-10-30T15:18:24;20.70;99.90
10278;DHT22;5184;51.376;7.148;2022-10-30T15:20:51;20.60;99.90
10278;DHT22;5184;51.376;7.148;2022-10-30T15:23:27;20.50;1.00
10278;DHT22;5184;51.376;7.148;2022-10-30T15:25:55;20.50;1.00
10278;DHT22;5184;51.376;7.148;2022-10-30T15:28:22;20.40;1.00
10278;DHT22;5184;51.376;7.148;2022-10-30T15:30:58;20.50;1.00
10278;DHT22;5184;51.376;7.148;2022-10-30T15:33:24;20.50;1.00
10278;DHT22;5184;51.376;7.148;2022-10-30T15:35:50;20.60;1.00
10278;DHT22;5184;51.376;7.148;2022-10-30T15:38:17;20.60;99.90
10278;DHT22;5184;51.376;7.148;2022-10-30T15:40:44;20.50;99.90
10278;DHT22;5184;51.376;7.148;2022-10-30T15:43:12;20.40;99.90
10278;DHT22;5184;51.376;7.148;2022-10-30T15:45:40;20.40;99.90
10278;DHT22;5184;51.376;7.148;2022-10-30T15:50:59;20.10;1.00
10278;DHT22;5184;51.376;7.148;2022-10-30T15:53:31;19.90;1.00
10278;DHT22;5184;51.376;7.148;2022-10-30T15:55:56;19.80;1.00
10278;DHT22;5184;51.376;7.148;2022-10-30T15:58:20;19.70;99.90
10278;DHT22;5184;51.376;7.148;2022-10-30T16:00:57;19.50;99.90
10278;DHT22;5184;51.376;7.148;2022-10-30T16:03:22;19.40;99.90
10278;DHT22;5184;51.376;7.148;2022-10-30T16:05:49;19.20;1.00
10278;DHT22;5184;51.376;7.148;2022-10-30T16:08:20;19.00;1.00
10278;DHT22;5184;51.376;7.148;2022-10-30T16:10:45;18.90;1.00
10278;DHT22;5184;51.376;7.148;2022-10-30T16:13:18;18.80;1.00
10278;DHT22;5184;51.376;7.148;2022-10-30T16:15:43;18.70;1.00
10278;DHT22;5184;51.376;7.148;2022-10-30T16:18:17;18.50;1.00
10278;DHT22;5184;51.376;7.148;2022-10-30T16:20:43;18.30;1.00
10278;DHT22;5184;51.376;7.148;2022-10-30T16:23:09;18.20;1.00
10278;DHT22;5184;51.376;7.148;2022-10-30T16:25:35;18.00;1.00
10278;DHT22;5184;51.376;7.148;2022-10-30T16:28:03;17.80;1.00
10278;DHT22;5184;51.376;7.148;2022-10-30T16:30:28;17.80;1.00
10278;DHT22;5184;51.376;7.148;2022-10-30T16:32:55;17.70;1.00
10278;DHT22;5184;51.376;7.148;2022-10-30T16:35:23;17.50;27.40
10278;DHT22;5184;51.376;7.148;2022-10-30T16:37:50;17.40;99.90